PWSweather.com
Personal Weather Stations
Station Observations
IBELLARIA2
Riviera Adriatica, Bellaria Igea MarinaIT 47814

Riviera AdriaticaBellaria Igea MarinaIT 47814

Lat: 44.1481151, Lon: 12.4594771

Elevation: 15

Station Type: DAVIS Vantage PRO2

http://www.bellariameteo.it

Latest ConditionsUpdated 7:40:06 PM GMT+01:01 Tuesday, Nov 12, 2019
Currently Today's Max Today's Min Today's Average
Temperature 50.4°F10.2°C 50.4°F10.2°C 48.0°F8.9°C 48.8°F9.3°C
Dew Point 49.3°F9.6°C 49.3°F9.6°C 46.9°F8.3°C 47.7°F8.7°C
Winds 7.0 mph SSW11.3 kmh SSW 20.0 mph -32.2 kmh - - 6.9 mph 11.1 kmh
Wind Gusts 20.0 mph32.2 kmh 25.0 mph40.2 kmh - -
Humidity 96% 96% 95% 96%
Pressure 29.38 in994.9 mb 29.74 in1007.1 mb 29.31 in992.6 mb -
Precipitation - 0.54 in13.7 mm - -
Hour Temp Dew Point Humidity Winds Wind Gusts Pressure Precip Precip Rate Daily Precip Total
07:40 PM 50.4°F10.2°C 49.3°F9.6°C 96% 7.0 mph SSW11.3 kmh SSW 20.0 mph32.2 kmh 29.38 in994.9 mb 0.17 in4.3 mm 0.60 in15.2 mm 0.54 in13.7 mm
07:35 PM 50.3°F10.2°C 49.2°F9.6°C 96% 14.0 mph WSW22.5 kmh WSW 24.0 mph38.6 kmh 29.37 in994.6 mb 0.12 in3.0 mm 0.72 in18.3 mm 0.50 in12.7 mm
07:30 PM 50.0°F10.0°C 48.9°F9.4°C 96% 9.0 mph SW14.5 kmh SW 23.0 mph37.0 kmh 29.36 in994.2 mb 0.06 in1.5 mm 0.48 in12.2 mm 0.43 in10.9 mm
07:25 PM 49.7°F9.8°C 48.6°F9.2°C 96% 13.0 mph WSW20.9 kmh WSW 24.0 mph38.6 kmh 29.35 in993.9 mb 0.02 in0.5 mm 0.00 in0.0 mm 0.39 in9.9 mm
07:20 PM 49.5°F9.7°C 48.4°F9.1°C 96% 14.0 mph WSW22.5 kmh WSW 25.0 mph40.2 kmh 29.33 in993.2 mb 0.03 in0.8 mm 0.00 in0.0 mm 0.39 in9.9 mm
07:15 PM 49.4°F9.7°C 48.3°F9.1°C 96% 12.0 mph SW19.3 kmh SW 23.0 mph37.0 kmh 29.32 in992.9 mb 0.03 in0.8 mm 0.00 in0.0 mm 0.39 in9.9 mm
07:10 PM 49.3°F9.6°C 48.2°F9.0°C 96% 12.0 mph W19.3 kmh W 22.0 mph35.4 kmh 29.31 in992.6 mb 0.05 in1.3 mm 0.00 in0.0 mm 0.39 in9.9 mm
07:05 PM 49.2°F9.6°C 48.1°F8.9°C 96% 17.0 mph W27.4 kmh W 22.0 mph35.4 kmh 29.32 in992.9 mb 0.06 in1.5 mm 0.00 in0.0 mm 0.39 in9.9 mm
07:00 PM 49.1°F9.5°C 48.0°F8.9°C 96% 10.0 mph WSW16.1 kmh WSW 22.0 mph35.4 kmh 29.31 in992.6 mb 0.06 in1.5 mm 0.00 in0.0 mm 0.39 in9.9 mm
06:55 PM 49.1°F9.5°C 48.0°F8.9°C 96% 17.0 mph NW27.4 kmh NW 21.0 mph33.8 kmh 29.32 in992.9 mb 0.07 in1.8 mm 0.00 in0.0 mm 0.39 in9.9 mm
06:50 PM 49.0°F9.4°C 47.9°F8.8°C 96% 7.0 mph W11.3 kmh W 20.0 mph32.2 kmh 29.32 in992.9 mb 0.08 in2.0 mm 0.00 in0.0 mm 0.39 in9.9 mm
06:45 PM 48.9°F9.4°C 47.8°F8.8°C 96% 13.0 mph W20.9 kmh W 24.0 mph38.6 kmh 29.32 in992.9 mb 0.09 in2.3 mm 0.00 in0.0 mm 0.39 in9.9 mm
06:40 PM 48.9°F9.4°C 47.8°F8.8°C 96% 16.0 mph NW25.7 kmh NW 20.0 mph32.2 kmh 29.31 in992.6 mb 0.11 in2.8 mm 0.00 in0.0 mm 0.38 in9.7 mm
06:35 PM 48.8°F9.3°C 47.7°F8.7°C 96% 13.0 mph WNW20.9 kmh WNW 23.0 mph37.0 kmh 29.32 in992.9 mb 0.12 in3.0 mm 0.00 in0.0 mm 0.38 in9.7 mm
06:30 PM 48.7°F9.3°C 47.6°F8.7°C 96% 6.0 mph WNW9.7 kmh WNW 22.0 mph35.4 kmh 29.32 in992.9 mb 0.13 in3.3 mm 0.12 in3.0 mm 0.38 in9.7 mm
06:25 PM 48.6°F9.2°C 47.5°F8.6°C 96% 15.0 mph WNW24.1 kmh WNW 22.0 mph35.4 kmh 29.31 in992.6 mb 0.12 in3.0 mm 0.12 in3.0 mm 0.37 in9.4 mm
06:20 PM 48.5°F9.2°C 47.4°F8.6°C 96% 16.0 mph WNW25.7 kmh WNW 20.0 mph32.2 kmh 29.31 in992.6 mb 0.11 in2.8 mm 0.12 in3.0 mm 0.36 in9.1 mm
06:15 PM 48.5°F9.2°C 47.4°F8.6°C 96% 20.0 mph WNW32.2 kmh WNW 20.0 mph32.2 kmh 29.32 in992.9 mb 0.10 in2.5 mm 0.12 in3.0 mm 0.35 in8.9 mm
06:10 PM 48.6°F9.2°C 47.5°F8.6°C 96% 14.0 mph NW22.5 kmh NW 19.0 mph30.6 kmh 29.32 in992.9 mb 0.09 in2.3 mm 0.24 in6.1 mm 0.34 in8.6 mm
06:05 PM 48.6°F9.2°C 47.5°F8.6°C 96% 3.0 mph WNW4.8 kmh WNW 12.0 mph19.3 kmh 29.33 in993.2 mb 0.07 in1.8 mm 0.00 in0.0 mm 0.32 in8.1 mm
06:00 PM 48.6°F9.2°C 47.5°F8.6°C 96% 9.0 mph WNW14.5 kmh WNW 18.0 mph29.0 kmh 29.33 in993.2 mb 0.08 in2.0 mm 0.01 in0.3 mm 0.32 in8.1 mm
05:55 PM 48.6°F9.2°C 47.5°F8.6°C 96% 13.0 mph WNW20.9 kmh WNW 20.0 mph32.2 kmh 29.33 in993.2 mb 0.07 in1.8 mm 0.12 in3.0 mm 0.31 in7.9 mm
05:50 PM 48.7°F9.3°C 47.6°F8.7°C 96% 6.0 mph W9.7 kmh W 18.0 mph29.0 kmh 29.32 in992.9 mb 0.06 in1.5 mm 0.12 in3.0 mm 0.31 in7.9 mm
05:45 PM 48.7°F9.3°C 47.6°F8.7°C 96% 5.0 mph NW8.0 kmh NW 16.0 mph25.7 kmh 29.32 in992.9 mb 0.05 in1.3 mm 0.36 in9.1 mm 0.29 in7.4 mm
05:40 PM 48.7°F9.3°C 47.6°F8.7°C 96% 8.0 mph WNW12.9 kmh WNW 22.0 mph35.4 kmh 29.32 in992.9 mb 0.02 in0.5 mm 0.00 in0.0 mm 0.27 in6.9 mm
05:35 PM 48.8°F9.3°C 47.7°F8.7°C 96% 1.0 mph W1.6 kmh W 17.0 mph27.4 kmh 29.32 in992.9 mb 0.02 in0.5 mm 0.12 in3.0 mm 0.26 in6.6 mm
05:30 PM 48.7°F9.3°C 47.6°F8.7°C 96% 17.0 mph NW27.4 kmh NW 18.0 mph29.0 kmh 29.32 in992.9 mb 0.01 in0.3 mm 0.00 in0.0 mm 0.25 in6.4 mm
05:25 PM 48.8°F9.3°C 47.7°F8.7°C 96% 11.0 mph WNW17.7 kmh WNW 17.0 mph27.4 kmh 29.33 in993.2 mb 0.01 in0.3 mm 0.00 in0.0 mm 0.25 in6.4 mm
05:20 PM 48.8°F9.3°C 47.7°F8.7°C 96% 8.0 mph W12.9 kmh W 18.0 mph29.0 kmh 29.33 in993.2 mb 0.01 in0.3 mm 0.00 in0.0 mm 0.25 in6.4 mm
05:15 PM 48.8°F9.3°C 47.7°F8.7°C 96% 5.0 mph WNW8.0 kmh WNW 13.0 mph20.9 kmh 29.33 in993.2 mb 0.02 in0.5 mm 0.00 in0.0 mm 0.25 in6.4 mm
05:10 PM 48.6°F9.2°C 47.5°F8.6°C 96% 7.0 mph W11.3 kmh W 12.0 mph19.3 kmh 29.33 in993.2 mb 0.02 in0.5 mm 0.00 in0.0 mm 0.25 in6.4 mm
05:05 PM 48.6°F9.2°C 47.5°F8.6°C 96% 10.0 mph NW16.1 kmh NW 14.0 mph22.5 kmh 29.33 in993.2 mb 0.02 in0.5 mm 0.12 in3.0 mm 0.25 in6.4 mm
05:00 PM 48.6°F9.2°C 47.5°F8.6°C 96% 7.0 mph WNW11.3 kmh WNW 12.0 mph19.3 kmh 29.34 in993.6 mb 0.01 in0.3 mm 0.00 in0.0 mm 0.24 in6.1 mm
04:55 PM 48.6°F9.2°C 47.5°F8.6°C 96% 12.0 mph W19.3 kmh W 15.0 mph24.1 kmh 29.33 in993.2 mb 0.01 in0.3 mm 0.00 in0.0 mm 0.24 in6.1 mm
04:50 PM 48.6°F9.2°C 47.5°F8.6°C 96% 7.0 mph W11.3 kmh W 14.0 mph22.5 kmh 29.33 in993.2 mb 0.01 in0.3 mm 0.00 in0.0 mm 0.24 in6.1 mm
04:45 PM 48.6°F9.2°C 47.5°F8.6°C 96% 6.0 mph W9.7 kmh W 11.0 mph17.7 kmh 29.34 in993.6 mb 0.01 in0.3 mm 0.00 in0.0 mm 0.24 in6.1 mm
04:40 PM 48.5°F9.2°C 47.4°F8.6°C 96% 5.0 mph W8.0 kmh W 14.0 mph22.5 kmh 29.34 in993.6 mb 0.01 in0.3 mm 0.00 in0.0 mm 0.24 in6.1 mm
04:35 PM 48.5°F9.2°C 47.4°F8.6°C 96% 6.0 mph W9.7 kmh W 15.0 mph24.1 kmh 29.34 in993.6 mb 0.02 in0.5 mm 0.00 in0.0 mm 0.24 in6.1 mm
04:30 PM 48.5°F9.2°C 47.4°F8.6°C 96% 7.0 mph WNW11.3 kmh WNW 15.0 mph24.1 kmh 29.34 in993.6 mb 0.02 in0.5 mm 0.00 in0.0 mm 0.24 in6.1 mm
04:25 PM 48.4°F9.1°C 47.3°F8.5°C 96% 5.0 mph WNW8.0 kmh WNW 19.0 mph30.6 kmh 29.34 in993.6 mb 0.02 in0.5 mm 0.00 in0.0 mm 0.24 in6.1 mm
04:20 PM 48.4°F9.1°C 47.3°F8.5°C 96% 12.0 mph NW19.3 kmh NW 16.0 mph25.7 kmh 29.35 in993.9 mb 0.02 in0.5 mm 0.00 in0.0 mm 0.24 in6.1 mm
04:15 PM 48.4°F9.1°C 47.3°F8.5°C 96% 9.0 mph WNW14.5 kmh WNW 13.0 mph20.9 kmh 29.35 in993.9 mb 0.02 in0.5 mm 0.00 in0.0 mm 0.24 in6.1 mm
04:10 PM 48.3°F9.1°C 47.2°F8.4°C 96% 9.0 mph WNW14.5 kmh WNW 14.0 mph22.5 kmh 29.35 in993.9 mb 0.03 in0.8 mm 0.00 in0.0 mm 0.24 in6.1 mm
04:05 PM 48.3°F9.1°C 47.2°F8.4°C 96% 8.0 mph WNW12.9 kmh WNW 13.0 mph20.9 kmh 29.36 in994.2 mb 0.03 in0.8 mm 0.00 in0.0 mm 0.24 in6.1 mm
04:00 PM 48.3°F9.1°C 47.2°F8.4°C 96% 11.0 mph NW17.7 kmh NW 15.0 mph24.1 kmh 29.37 in994.6 mb 0.04 in1.0 mm 0.00 in0.0 mm 0.24 in6.1 mm
03:55 PM 48.3°F9.1°C 47.2°F8.4°C 96% 3.0 mph NW4.8 kmh NW 15.0 mph24.1 kmh 29.37 in994.6 mb 0.05 in1.3 mm 0.00 in0.0 mm 0.24 in6.1 mm
03:50 PM 48.2°F9.0°C 47.1°F8.4°C 96% 5.0 mph WSW8.0 kmh WSW 16.0 mph25.7 kmh 29.37 in994.6 mb 0.06 in1.5 mm 0.00 in0.0 mm 0.24 in6.1 mm
03:45 PM 48.2°F9.0°C 47.1°F8.4°C 96% 9.0 mph WNW14.5 kmh WNW 18.0 mph29.0 kmh 29.37 in994.6 mb 0.06 in1.5 mm 0.00 in0.0 mm 0.24 in6.1 mm
03:40 PM 48.2°F9.0°C 47.1°F8.4°C 96% 9.0 mph WNW14.5 kmh WNW 15.0 mph24.1 kmh 29.36 in994.2 mb 0.06 in1.5 mm 0.00 in0.0 mm 0.24 in6.1 mm
03:35 PM 48.1°F8.9°C 47.0°F8.3°C 96% 12.0 mph W19.3 kmh W 16.0 mph25.7 kmh 29.38 in994.9 mb 0.06 in1.5 mm 0.12 in3.0 mm 0.23 in5.8 mm
03:30 PM 48.0°F8.9°C 46.9°F8.3°C 96% 8.0 mph W12.9 kmh W 15.0 mph24.1 kmh 29.38 in994.9 mb 0.05 in1.3 mm 0.00 in0.0 mm 0.22 in5.6 mm
03:25 PM 48.1°F8.9°C 47.0°F8.3°C 96% 7.0 mph W11.3 kmh W 16.0 mph25.7 kmh 29.39 in995.3 mb 0.05 in1.3 mm 0.00 in0.0 mm 0.22 in5.6 mm
03:20 PM 48.1°F8.9°C 47.0°F8.3°C 96% 6.0 mph WNW9.7 kmh WNW 18.0 mph29.0 kmh 29.40 in995.6 mb 0.06 in1.5 mm 0.00 in0.0 mm 0.22 in5.6 mm
03:15 PM 48.2°F9.0°C 47.1°F8.4°C 96% 8.0 mph NW12.9 kmh NW 14.0 mph22.5 kmh 29.39 in995.3 mb 0.06 in1.5 mm 0.12 in3.0 mm 0.21 in5.3 mm
03:10 PM 48.1°F8.9°C 47.0°F8.3°C 96% 7.0 mph W11.3 kmh W 16.0 mph25.7 kmh 29.40 in995.6 mb 0.05 in1.3 mm 0.00 in0.0 mm 0.20 in5.1 mm
03:05 PM 48.1°F8.9°C 47.0°F8.3°C 96% 8.0 mph W12.9 kmh W 18.0 mph29.0 kmh 29.40 in995.6 mb 0.06 in1.5 mm 0.00 in0.0 mm 0.20 in5.1 mm
03:00 PM 48.2°F9.0°C 47.1°F8.4°C 96% 7.0 mph WNW11.3 kmh WNW 16.0 mph25.7 kmh 29.40 in995.6 mb 0.06 in1.5 mm 0.00 in0.0 mm 0.20 in5.1 mm
02:55 PM 48.3°F9.1°C 47.2°F8.4°C 96% 5.0 mph WSW8.0 kmh WSW 13.0 mph20.9 kmh 29.40 in995.6 mb 0.06 in1.5 mm 0.00 in0.0 mm 0.19 in4.8 mm
02:50 PM 48.3°F9.1°C 47.2°F8.4°C 96% 7.0 mph WNW11.3 kmh WNW 22.0 mph35.4 kmh 29.40 in995.6 mb 0.06 in1.5 mm 0.12 in3.0 mm 0.18 in4.6 mm
02:45 PM 48.3°F9.1°C 47.2°F8.4°C 96% 1.0 mph NW1.6 kmh NW 14.0 mph22.5 kmh 29.40 in995.6 mb 0.05 in1.3 mm 0.00 in0.0 mm 0.17 in4.3 mm
02:40 PM 48.3°F9.1°C 47.2°F8.4°C 96% 8.0 mph NW12.9 kmh NW 19.0 mph30.6 kmh 29.40 in995.6 mb 0.06 in1.5 mm 0.00 in0.0 mm 0.17 in4.3 mm
02:35 PM 48.2°F9.0°C 47.1°F8.4°C 96% 7.0 mph WSW11.3 kmh WSW 21.0 mph33.8 kmh 29.40 in995.6 mb 0.06 in1.5 mm 0.00 in0.0 mm 0.17 in4.3 mm
02:30 PM 48.2°F9.0°C 47.1°F8.4°C 96% 8.0 mph NNW12.9 kmh NNW 15.0 mph24.1 kmh 29.40 in995.6 mb 0.06 in1.5 mm 0.00 in0.0 mm 0.17 in4.3 mm
02:25 PM 48.1°F8.9°C 47.0°F8.3°C 96% 8.0 mph W12.9 kmh W 19.0 mph30.6 kmh 29.41 in995.9 mb 0.06 in1.5 mm 0.00 in0.0 mm 0.17 in4.3 mm
02:20 PM 48.2°F9.0°C 47.1°F8.4°C 96% 18.0 mph WNW29.0 kmh WNW 21.0 mph33.8 kmh 29.41 in995.9 mb 0.06 in1.5 mm 0.00 in0.0 mm 0.17 in4.3 mm
02:15 PM 48.3°F9.1°C 47.2°F8.4°C 96% 4.0 mph WSW6.4 kmh WSW 17.0 mph27.4 kmh 29.42 in996.3 mb 0.06 in1.5 mm 0.00 in0.0 mm 0.16 in4.1 mm
02:10 PM 48.3°F9.1°C 47.2°F8.4°C 96% 6.0 mph W9.7 kmh W 21.0 mph33.8 kmh 29.42 in996.3 mb 0.06 in1.5 mm 0.24 in6.1 mm 0.16 in4.1 mm
02:05 PM 48.4°F9.1°C 47.3°F8.5°C 96% 5.0 mph W8.0 kmh W 16.0 mph25.7 kmh 29.42 in996.3 mb 0.04 in1.0 mm 0.00 in0.0 mm 0.14 in3.6 mm
02:00 PM 48.4°F9.1°C 47.3°F8.5°C 96% 11.0 mph W17.7 kmh W 17.0 mph27.4 kmh 29.43 in996.6 mb 0.04 in1.0 mm 0.02 in0.5 mm 0.14 in3.6 mm
01:55 PM 48.4°F9.1°C 47.3°F8.5°C 96% 13.0 mph WNW20.9 kmh WNW 19.0 mph30.6 kmh 29.44 in997.0 mb 0.02 in0.5 mm 0.00 in0.0 mm 0.13 in3.3 mm
01:50 PM 48.4°F9.1°C 47.3°F8.5°C 96% 6.0 mph W9.7 kmh W 19.0 mph30.6 kmh 29.44 in997.0 mb 0.02 in0.5 mm 0.00 in0.0 mm 0.13 in3.3 mm
01:45 PM 48.5°F9.2°C 47.4°F8.6°C 96% 6.0 mph W9.7 kmh W 18.0 mph29.0 kmh 29.45 in997.3 mb 0.02 in0.5 mm 0.00 in0.0 mm 0.13 in3.3 mm
01:40 PM 48.5°F9.2°C 47.4°F8.6°C 96% 8.0 mph WNW12.9 kmh WNW 15.0 mph24.1 kmh 29.44 in997.0 mb 0.02 in0.5 mm 0.12 in3.0 mm 0.12 in3.0 mm
01:35 PM 48.5°F9.2°C 47.1°F8.4°C 95% 5.0 mph NW8.0 kmh NW 19.0 mph30.6 kmh 29.44 in997.0 mb 0.01 in0.3 mm 0.00 in0.0 mm 0.11 in2.8 mm
01:30 PM 48.5°F9.2°C 47.1°F8.4°C 95% 9.0 mph WSW14.5 kmh WSW 16.0 mph25.7 kmh 29.44 in997.0 mb 0.01 in0.3 mm 0.00 in0.0 mm 0.11 in2.8 mm
01:25 PM 48.4°F9.1°C 47.0°F8.3°C 95% 7.0 mph W11.3 kmh W 20.0 mph32.2 kmh 29.44 in997.0 mb 0.01 in0.3 mm 0.12 in3.0 mm 0.11 in2.8 mm
01:20 PM 48.4°F9.1°C 47.0°F8.3°C 95% 11.0 mph NW17.7 kmh NW 22.0 mph35.4 kmh 29.44 in997.0 mb 0.00 in0.0 mm 0.00 in0.0 mm 0.10 in2.5 mm
01:15 PM 48.6°F9.2°C 47.2°F8.4°C 95% 6.0 mph W9.7 kmh W 19.0 mph30.6 kmh 29.45 in997.3 mb 0.00 in0.0 mm 0.00 in0.0 mm 0.10 in2.5 mm
01:10 PM 48.6°F9.2°C 47.2°F8.4°C 95% 11.0 mph W17.7 kmh W 16.0 mph25.7 kmh 29.45 in997.3 mb 0.00 in0.0 mm 0.00 in0.0 mm 0.10 in2.5 mm
01:05 PM 48.6°F9.2°C 47.5°F8.6°C 96% 6.0 mph W9.7 kmh W 16.0 mph25.7 kmh 29.44 in997.0 mb 0.00 in0.0 mm 0.00 in0.0 mm 0.10 in2.5 mm
01:00 PM 48.6°F9.2°C 47.5°F8.6°C 96% 14.0 mph W22.5 kmh W 18.0 mph29.0 kmh 29.44 in997.0 mb 0.00 in0.0 mm 0.00 in0.0 mm 0.10 in2.5 mm
12:55 PM 48.7°F9.3°C 47.3°F8.5°C 95% 9.0 mph NW14.5 kmh NW 20.0 mph32.2 kmh 29.44 in997.0 mb 0.00 in0.0 mm 0.00 in0.0 mm 0.10 in2.5 mm
12:50 PM 48.6°F9.2°C 47.5°F8.6°C 96% 7.0 mph WNW11.3 kmh WNW 22.0 mph35.4 kmh 29.44 in997.0 mb 0.00 in0.0 mm 0.00 in0.0 mm 0.10 in2.5 mm
12:45 PM 48.6°F9.2°C 47.5°F8.6°C 96% 10.0 mph NW16.1 kmh NW 21.0 mph33.8 kmh 29.44 in997.0 mb 0.00 in0.0 mm 0.00 in0.0 mm 0.10 in2.5 mm
12:40 PM 48.5°F9.2°C 47.4°F8.6°C 96% 10.0 mph NW16.1 kmh NW 22.0 mph35.4 kmh 29.44 in997.0 mb 0.00 in0.0 mm 0.00 in0.0 mm 0.10 in2.5 mm
12:35 PM 48.5°F9.2°C 47.4°F8.6°C 96% 7.0 mph NW11.3 kmh NW 19.0 mph30.6 kmh 29.45 in997.3 mb 0.01 in0.3 mm 0.00 in0.0 mm 0.10 in2.5 mm
12:30 PM 48.5°F9.2°C 47.4°F8.6°C 96% 12.0 mph NW19.3 kmh NW 20.0 mph32.2 kmh 29.46 in997.6 mb 0.01 in0.3 mm 0.00 in0.0 mm 0.10 in2.5 mm
12:25 PM 48.4°F9.1°C 47.3°F8.5°C 96% 6.0 mph W9.7 kmh W 20.0 mph32.2 kmh 29.46 in997.6 mb 0.01 in0.3 mm 0.00 in0.0 mm 0.10 in2.5 mm
12:20 PM 48.4°F9.1°C 47.3°F8.5°C 96% 9.0 mph W14.5 kmh W 17.0 mph27.4 kmh 29.47 in998.0 mb 0.01 in0.3 mm 0.00 in0.0 mm 0.10 in2.5 mm
12:15 PM 48.4°F9.1°C 47.3°F8.5°C 96% 19.0 mph NW30.6 kmh NW 19.0 mph30.6 kmh 29.47 in998.0 mb 0.02 in0.5 mm 0.00 in0.0 mm 0.10 in2.5 mm
12:10 PM 48.3°F9.1°C 47.2°F8.4°C 96% 10.0 mph W16.1 kmh W 20.0 mph32.2 kmh 29.47 in998.0 mb 0.02 in0.5 mm 0.00 in0.0 mm 0.10 in2.5 mm
12:05 PM 48.2°F9.0°C 47.1°F8.4°C 96% 6.0 mph NW9.7 kmh NW 22.0 mph35.4 kmh 29.48 in998.3 mb 0.02 in0.5 mm 0.00 in0.0 mm 0.10 in2.5 mm
12:00 PM 48.2°F9.0°C 47.1°F8.4°C 96% 7.0 mph W11.3 kmh W 20.0 mph32.2 kmh 29.49 in998.6 mb 0.02 in0.5 mm 0.00 in0.0 mm 0.10 in2.5 mm
11:55 AM 48.3°F9.1°C 47.2°F8.4°C 96% 11.0 mph NW17.7 kmh NW 16.0 mph25.7 kmh 29.49 in998.6 mb 0.02 in0.5 mm 0.00 in0.0 mm 0.10 in2.5 mm
11:50 AM 48.4°F9.1°C 47.3°F8.5°C 96% 5.0 mph W8.0 kmh W 13.0 mph20.9 kmh 29.49 in998.6 mb 0.02 in0.5 mm 0.00 in0.0 mm 0.10 in2.5 mm
11:45 AM 48.3°F9.1°C 47.2°F8.4°C 96% 10.0 mph NW16.1 kmh NW 18.0 mph29.0 kmh 29.50 in999.0 mb 0.02 in0.5 mm 0.00 in0.0 mm 0.10 in2.5 mm
11:40 AM 48.3°F9.1°C 47.2°F8.4°C 96% 5.0 mph WNW8.0 kmh WNW 17.0 mph27.4 kmh 29.50 in999.0 mb 0.02 in0.5 mm 0.12 in3.0 mm 0.10 in2.5 mm
11:35 AM 48.4°F9.1°C 47.3°F8.5°C 96% 8.0 mph WNW12.9 kmh WNW 15.0 mph24.1 kmh 29.51 in999.3 mb 0.01 in0.3 mm 0.00 in0.0 mm 0.09 in2.3 mm
11:30 AM 48.3°F9.1°C 47.2°F8.4°C 96% 6.0 mph NW9.7 kmh NW 17.0 mph27.4 kmh 29.52 in999.7 mb 0.01 in0.3 mm 0.00 in0.0 mm 0.09 in2.3 mm
11:25 AM 48.4°F9.1°C 47.3°F8.5°C 96% 14.0 mph NW22.5 kmh NW 19.0 mph30.6 kmh 29.52 in999.7 mb 0.01 in0.3 mm 0.00 in0.0 mm 0.09 in2.3 mm
11:20 AM 48.4°F9.1°C 47.3°F8.5°C 96% 13.0 mph NW20.9 kmh NW 15.0 mph24.1 kmh 29.53 in1000.0 mb 0.01 in0.3 mm 0.12 in3.0 mm 0.09 in2.3 mm
11:15 AM 48.4°F9.1°C 47.3°F8.5°C 96% 6.0 mph W9.7 kmh W 16.0 mph25.7 kmh 29.53 in1000.0 mb 0.00 in0.0 mm 0.00 in0.0 mm 0.09 in2.3 mm
11:10 AM 48.4°F9.1°C 47.3°F8.5°C 96% 5.0 mph W8.0 kmh W 14.0 mph22.5 kmh 29.53 in1000.0 mb 0.00 in0.0 mm 0.00 in0.0 mm 0.09 in2.3 mm
11:05 AM 48.4°F9.1°C 47.3°F8.5°C 96% 4.0 mph W6.4 kmh W 14.0 mph22.5 kmh 29.54 in1000.3 mb 0.00 in0.0 mm 0.00 in0.0 mm 0.09 in2.3 mm
11:00 AM 48.4°F9.1°C 47.3°F8.5°C 96% 7.0 mph NW11.3 kmh NW 13.0 mph20.9 kmh 29.54 in1000.3 mb 0.00 in0.0 mm 0.00 in0.0 mm 0.09 in2.3 mm
10:55 AM 48.3°F9.1°C 47.2°F8.4°C 96% 5.0 mph W8.0 kmh W 17.0 mph27.4 kmh 29.55 in1000.7 mb 0.00 in0.0 mm 0.00 in0.0 mm 0.09 in2.3 mm
10:50 AM 48.3°F9.1°C 47.2°F8.4°C 96% 4.0 mph W6.4 kmh W 15.0 mph24.1 kmh 29.55 in1000.7 mb 0.00 in0.0 mm 0.00 in0.0 mm 0.09 in2.3 mm
10:45 AM 48.4°F9.1°C 47.3°F8.5°C 96% 12.0 mph NW19.3 kmh NW 15.0 mph24.1 kmh 29.55 in1000.7 mb 0.00 in0.0 mm 0.00 in0.0 mm 0.09 in2.3 mm
10:40 AM 48.4°F9.1°C 47.3°F8.5°C 96% 6.0 mph NW9.7 kmh NW 16.0 mph25.7 kmh 29.54 in1000.3 mb 0.00 in0.0 mm 0.00 in0.0 mm 0.09 in2.3 mm
10:35 AM 48.4°F9.1°C 47.3°F8.5°C 96% 7.0 mph SW11.3 kmh SW 16.0 mph25.7 kmh 29.55 in1000.7 mb 0.00 in0.0 mm 0.00 in0.0 mm 0.09 in2.3 mm
10:30 AM 48.4°F9.1°C 47.3°F8.5°C 96% 5.0 mph WNW8.0 kmh WNW 15.0 mph24.1 kmh 29.54 in1000.3 mb 0.00 in0.0 mm 0.00 in0.0 mm 0.09 in2.3 mm
10:25 AM 48.4°F9.1°C 47.3°F8.5°C 96% 12.0 mph NW19.3 kmh NW 18.0 mph29.0 kmh 29.54 in1000.3 mb 0.00 in0.0 mm 0.00 in0.0 mm 0.09 in2.3 mm
10:20 AM 48.4°F9.1°C 47.3°F8.5°C 96% 6.0 mph WSW9.7 kmh WSW 14.0 mph22.5 kmh 29.54 in1000.3 mb 0.00 in0.0 mm 0.00 in0.0 mm 0.09 in2.3 mm
10:15 AM 48.3°F9.1°C 47.2°F8.4°C 96% 5.0 mph NW8.0 kmh NW 23.0 mph37.0 kmh 29.54 in1000.3 mb 0.00 in0.0 mm 0.00 in0.0 mm 0.09 in2.3 mm
10:10 AM 48.3°F9.1°C 47.2°F8.4°C 96% 13.0 mph WNW20.9 kmh WNW 23.0 mph37.0 kmh 29.53 in1000.0 mb 0.00 in0.0 mm 0.00 in0.0 mm 0.09 in2.3 mm
10:05 AM 48.4°F9.1°C 47.3°F8.5°C 96% 8.0 mph NW12.9 kmh NW 16.0 mph25.7 kmh 29.53 in1000.0 mb 0.00 in0.0 mm 0.00 in0.0 mm 0.09 in2.3 mm
10:00 AM 48.5°F9.2°C 47.4°F8.6°C 96% 8.0 mph WNW12.9 kmh WNW 17.0 mph27.4 kmh 29.53 in1000.0 mb 0.00 in0.0 mm 0.00 in0.0 mm 0.09 in2.3 mm
09:55 AM 48.5°F9.2°C 47.4°F8.6°C 96% 5.0 mph W8.0 kmh W 18.0 mph29.0 kmh 29.53 in1000.0 mb 0.00 in0.0 mm 0.00 in0.0 mm 0.09 in2.3 mm
09:50 AM 48.6°F9.2°C 47.5°F8.6°C 96% 12.0 mph WNW19.3 kmh WNW 17.0 mph27.4 kmh 29.53 in1000.0 mb 0.00 in0.0 mm 0.00 in0.0 mm 0.09 in2.3 mm
09:45 AM 48.6°F9.2°C 47.5°F8.6°C 96% 11.0 mph WNW17.7 kmh WNW 14.0 mph22.5 kmh 29.53 in1000.0 mb 0.00 in0.0 mm 0.00 in0.0 mm 0.09 in2.3 mm
09:40 AM 48.6°F9.2°C 47.5°F8.6°C 96% 10.0 mph W16.1 kmh W 16.0 mph25.7 kmh 29.54 in1000.3 mb 0.00 in0.0 mm 0.00 in0.0 mm 0.09 in2.3 mm
09:35 AM 48.6°F9.2°C 47.5°F8.6°C 96% 13.0 mph NW20.9 kmh NW 20.0 mph32.2 kmh 29.54 in1000.3 mb 0.00 in0.0 mm 0.00 in0.0 mm 0.09 in2.3 mm
09:30 AM 48.7°F9.3°C 47.6°F8.7°C 96% 10.0 mph NW16.1 kmh NW 12.0 mph19.3 kmh 29.54 in1000.3 mb 0.00 in0.0 mm 0.00 in0.0 mm 0.09 in2.3 mm
09:25 AM 48.7°F9.3°C 47.6°F8.7°C 96% 7.0 mph NW11.3 kmh NW 10.0 mph16.1 kmh 29.55 in1000.7 mb 0.00 in0.0 mm 0.00 in0.0 mm 0.09 in2.3 mm
09:20 AM 48.7°F9.3°C 47.6°F8.7°C 96% 2.0 mph WNW3.2 kmh WNW 14.0 mph22.5 kmh 29.55 in1000.7 mb 0.00 in0.0 mm 0.00 in0.0 mm 0.09 in2.3 mm
09:15 AM 48.7°F9.3°C 47.6°F8.7°C 96% 5.0 mph W8.0 kmh W 13.0 mph20.9 kmh 29.55 in1000.7 mb 0.00 in0.0 mm 0.00 in0.0 mm 0.09 in2.3 mm
09:10 AM 48.7°F9.3°C 47.6°F8.7°C 96% 7.0 mph NW11.3 kmh NW 13.0 mph20.9 kmh 29.55 in1000.7 mb 0.00 in0.0 mm 0.00 in0.0 mm 0.09 in2.3 mm
09:05 AM 48.7°F9.3°C 47.6°F8.7°C 96% 6.0 mph W9.7 kmh W 18.0 mph29.0 kmh 29.55 in1000.7 mb 0.00 in0.0 mm 0.00 in0.0 mm 0.09 in2.3 mm
09:00 AM 48.7°F9.3°C 47.6°F8.7°C 96% 8.0 mph WSW12.9 kmh WSW 14.0 mph22.5 kmh 29.55 in1000.7 mb 0.00 in0.0 mm 0.00 in0.0 mm 0.09 in2.3 mm
08:55 AM 48.7°F9.3°C 47.6°F8.7°C 96% 8.0 mph W12.9 kmh W 12.0 mph19.3 kmh 29.56 in1001.0 mb 0.00 in0.0 mm 0.00 in0.0 mm 0.09 in2.3 mm
08:50 AM 48.8°F9.3°C 47.7°F8.7°C 96% 11.0 mph WNW17.7 kmh WNW 13.0 mph20.9 kmh 29.56 in1001.0 mb 0.00 in0.0 mm 0.00 in0.0 mm 0.09 in2.3 mm
08:45 AM 48.8°F9.3°C 47.7°F8.7°C 96% 4.0 mph W6.4 kmh W 11.0 mph17.7 kmh 29.56 in1001.0 mb 0.00 in0.0 mm 0.00 in0.0 mm 0.09 in2.3 mm
08:40 AM 48.8°F9.3°C 47.7°F8.7°C 96% 4.0 mph WNW6.4 kmh WNW 12.0 mph19.3 kmh 29.56 in1001.0 mb 0.00 in0.0 mm 0.00 in0.0 mm 0.09 in2.3 mm
08:35 AM 48.7°F9.3°C 47.6°F8.7°C 96% 13.0 mph NW20.9 kmh NW 14.0 mph22.5 kmh 29.56 in1001.0 mb 0.00 in0.0 mm 0.00 in0.0 mm 0.09 in2.3 mm
08:30 AM 48.8°F9.3°C 47.7°F8.7°C 96% Calm Calm 11.0 mph17.7 kmh 29.56 in1001.0 mb 0.00 in0.0 mm 0.00 in0.0 mm 0.09 in2.3 mm
08:25 AM 48.9°F9.4°C 47.8°F8.8°C 96% 4.0 mph W6.4 kmh W 10.0 mph16.1 kmh 29.57 in1001.4 mb 0.00 in0.0 mm 0.00 in0.0 mm 0.09 in2.3 mm
08:20 AM 48.8°F9.3°C 47.7°F8.7°C 96% 5.0 mph W8.0 kmh W 14.0 mph22.5 kmh 29.57 in1001.4 mb 0.01 in0.3 mm 0.00 in0.0 mm 0.09 in2.3 mm
08:15 AM 48.9°F9.4°C 47.8°F8.8°C 96% 3.0 mph WSW4.8 kmh WSW 13.0 mph20.9 kmh 29.57 in1001.4 mb 0.01 in0.3 mm 0.00 in0.0 mm 0.09 in2.3 mm
08:10 AM 49.0°F9.4°C 47.9°F8.8°C 96% 7.0 mph WSW11.3 kmh WSW 14.0 mph22.5 kmh 29.57 in1001.4 mb 0.02 in0.5 mm 0.00 in0.0 mm 0.09 in2.3 mm
08:05 AM 49.0°F9.4°C 47.9°F8.8°C 96% 7.0 mph WNW11.3 kmh WNW 10.0 mph16.1 kmh 29.58 in1001.7 mb 0.02 in0.5 mm 0.00 in0.0 mm 0.09 in2.3 mm
08:00 AM 49.0°F9.4°C 47.9°F8.8°C 96% 2.0 mph W3.2 kmh W 12.0 mph19.3 kmh 29.57 in1001.4 mb 0.03 in0.8 mm 0.00 in0.0 mm 0.09 in2.3 mm
07:55 AM 48.9°F9.4°C 47.8°F8.8°C 96% 7.0 mph WNW11.3 kmh WNW 17.0 mph27.4 kmh 29.57 in1001.4 mb 0.03 in0.8 mm 0.00 in0.0 mm 0.09 in2.3 mm
07:50 AM 49.0°F9.4°C 47.9°F8.8°C 96% 13.0 mph NW20.9 kmh NW 13.0 mph20.9 kmh 29.58 in1001.7 mb 0.04 in1.0 mm 0.00 in0.0 mm 0.09 in2.3 mm
07:45 AM 49.0°F9.4°C 47.9°F8.8°C 96% 4.0 mph W6.4 kmh W 12.0 mph19.3 kmh 29.58 in1001.7 mb 0.05 in1.3 mm 0.00 in0.0 mm 0.09 in2.3 mm
07:40 AM 49.0°F9.4°C 47.9°F8.8°C 96% 10.0 mph WNW16.1 kmh WNW 12.0 mph19.3 kmh 29.58 in1001.7 mb 0.06 in1.5 mm 0.00 in0.0 mm 0.09 in2.3 mm
07:35 AM 49.0°F9.4°C 47.9°F8.8°C 96% 9.0 mph WNW14.5 kmh WNW 12.0 mph19.3 kmh 29.58 in1001.7 mb 0.06 in1.5 mm 0.00 in0.0 mm 0.09 in2.3 mm
07:30 AM 49.0°F9.4°C 47.9°F8.8°C 96% 4.0 mph NW6.4 kmh NW 11.0 mph17.7 kmh 29.58 in1001.7 mb 0.06 in1.5 mm 0.00 in0.0 mm 0.09 in2.3 mm
07:25 AM 48.9°F9.4°C 47.8°F8.8°C 96% 5.0 mph WNW8.0 kmh WNW 11.0 mph17.7 kmh 29.58 in1001.7 mb 0.06 in1.5 mm 0.00 in0.0 mm 0.09 in2.3 mm
07:20 AM 48.9°F9.4°C 47.8°F8.8°C 96% 10.0 mph W16.1 kmh W 13.0 mph20.9 kmh 29.57 in1001.4 mb 0.06 in1.5 mm 0.00 in0.0 mm 0.08 in2.0 mm
07:15 AM 48.9°F9.4°C 47.8°F8.8°C 96% 4.0 mph WNW6.4 kmh WNW 12.0 mph19.3 kmh 29.58 in1001.7 mb 0.06 in1.5 mm 0.12 in3.0 mm 0.08 in2.0 mm
07:10 AM 48.9°F9.4°C 47.8°F8.8°C 96% 3.0 mph W4.8 kmh W 8.0 mph12.9 kmh 29.58 in1001.7 mb 0.05 in1.3 mm 0.00 in0.0 mm 0.07 in1.8 mm
07:05 AM 48.9°F9.4°C 47.8°F8.8°C 96% 4.0 mph WSW6.4 kmh WSW 11.0 mph17.7 kmh 29.58 in1001.7 mb 0.05 in1.3 mm 0.12 in3.0 mm 0.06 in1.5 mm
07:00 AM 48.9°F9.4°C 47.8°F8.8°C 96% 6.0 mph WSW9.7 kmh WSW 9.0 mph14.5 kmh 29.58 in1001.7 mb 0.04 in1.0 mm 0.00 in0.0 mm 0.06 in1.5 mm
06:55 AM 48.9°F9.4°C 47.8°F8.8°C 96% 4.0 mph NW6.4 kmh NW 14.0 mph22.5 kmh 29.59 in1002.0 mb 0.04 in1.0 mm 0.00 in0.0 mm 0.06 in1.5 mm
06:50 AM 48.9°F9.4°C 47.8°F8.8°C 96% 4.0 mph NW6.4 kmh NW 12.0 mph19.3 kmh 29.59 in1002.0 mb 0.04 in1.0 mm 0.12 in3.0 mm 0.05 in1.3 mm
06:45 AM 48.9°F9.4°C 47.8°F8.8°C 96% 7.0 mph WNW11.3 kmh WNW 11.0 mph17.7 kmh 29.59 in1002.0 mb 0.03 in0.8 mm 0.12 in3.0 mm 0.04 in1.0 mm
06:40 AM 48.9°F9.4°C 47.8°F8.8°C 96% 6.0 mph W9.7 kmh W 12.0 mph19.3 kmh 29.59 in1002.0 mb 0.02 in0.5 mm 0.00 in0.0 mm 0.03 in0.8 mm
06:35 AM 49.0°F9.4°C 47.9°F8.8°C 96% 4.0 mph W6.4 kmh W 12.0 mph19.3 kmh 29.59 in1002.0 mb 0.02 in0.5 mm 0.00 in0.0 mm 0.03 in0.8 mm
06:30 AM 49.0°F9.4°C 47.9°F8.8°C 96% 4.0 mph WNW6.4 kmh WNW 11.0 mph17.7 kmh 29.59 in1002.0 mb 0.02 in0.5 mm 0.00 in0.0 mm 0.02 in0.5 mm
06:25 AM 48.9°F9.4°C 47.8°F8.8°C 96% 7.0 mph NW11.3 kmh NW 12.0 mph19.3 kmh 29.59 in1002.0 mb 0.02 in0.5 mm 0.00 in0.0 mm 0.02 in0.5 mm
06:20 AM 49.0°F9.4°C 47.9°F8.8°C 96% 7.0 mph WNW11.3 kmh WNW 14.0 mph22.5 kmh 29.59 in1002.0 mb 0.02 in0.5 mm 0.00 in0.0 mm 0.02 in0.5 mm
06:15 AM 49.0°F9.4°C 47.9°F8.8°C 96% 4.0 mph WNW6.4 kmh WNW 12.0 mph19.3 kmh 29.60 in1002.4 mb 0.02 in0.5 mm 0.00 in0.0 mm 0.02 in0.5 mm
06:10 AM 49.0°F9.4°C 47.9°F8.8°C 96% 7.0 mph WNW11.3 kmh WNW 13.0 mph20.9 kmh 29.60 in1002.4 mb 0.02 in0.5 mm 0.00 in0.0 mm 0.02 in0.5 mm
06:05 AM 49.1°F9.5°C 48.0°F8.9°C 96% 3.0 mph W4.8 kmh W 13.0 mph20.9 kmh 29.60 in1002.4 mb 0.02 in0.5 mm 0.00 in0.0 mm 0.02 in0.5 mm
06:00 AM 49.1°F9.5°C 48.0°F8.9°C 96% 6.0 mph WNW9.7 kmh WNW 12.0 mph19.3 kmh 29.60 in1002.4 mb 0.02 in0.5 mm 0.00 in0.0 mm 0.02 in0.5 mm
05:55 AM 49.1°F9.5°C 48.0°F8.9°C 96% 2.0 mph W3.2 kmh W 11.0 mph17.7 kmh 29.60 in1002.4 mb 0.02 in0.5 mm 0.12 in3.0 mm 0.02 in0.5 mm
05:50 AM 49.1°F9.5°C 48.0°F8.9°C 96% 4.0 mph W6.4 kmh W 12.0 mph19.3 kmh 29.61 in1002.7 mb 0.01 in0.3 mm 0.00 in0.0 mm 0.01 in0.3 mm
05:45 AM 49.1°F9.5°C 48.0°F8.9°C 96% 9.0 mph WNW14.5 kmh WNW 12.0 mph19.3 kmh 29.61 in1002.7 mb 0.01 in0.3 mm 0.00 in0.0 mm 0.01 in0.3 mm
05:40 AM 49.1°F9.5°C 48.0°F8.9°C 96% 3.0 mph W4.8 kmh W 13.0 mph20.9 kmh 29.61 in1002.7 mb 0.01 in0.3 mm 0.00 in0.0 mm 0.01 in0.3 mm
05:35 AM 49.2°F9.6°C 48.1°F8.9°C 96% 2.0 mph WNW3.2 kmh WNW 11.0 mph17.7 kmh 29.61 in1002.7 mb 0.01 in0.3 mm 0.00 in0.0 mm 0.01 in0.3 mm
05:30 AM 49.1°F9.5°C 48.0°F8.9°C 96% 6.0 mph WNW9.7 kmh WNW 11.0 mph17.7 kmh 29.62 in1003.0 mb 0.01 in0.3 mm 0.00 in0.0 mm 0.01 in0.3 mm
05:25 AM 49.1°F9.5°C 48.0°F8.9°C 96% 6.0 mph W9.7 kmh W 12.0 mph19.3 kmh 29.62 in1003.0 mb 0.01 in0.3 mm 0.00 in0.0 mm 0.01 in0.3 mm
05:20 AM 49.2°F9.6°C 48.1°F8.9°C 96% 4.0 mph NW6.4 kmh NW 14.0 mph22.5 kmh 29.61 in1002.7 mb 0.01 in0.3 mm 0.00 in0.0 mm 0.01 in0.3 mm
05:15 AM 49.2°F9.6°C 48.1°F8.9°C 96% 3.0 mph WNW4.8 kmh WNW 11.0 mph17.7 kmh 29.61 in1002.7 mb 0.01 in0.3 mm 0.12 in3.0 mm 0.01 in0.3 mm
05:10 AM 49.2°F9.6°C 48.1°F8.9°C 96% 8.0 mph WNW12.9 kmh WNW 10.0 mph16.1 kmh 29.62 in1003.0 mb 0.00 in0.0 mm 0.00 in0.0 mm 0.00 in0.0 mm
05:05 AM 49.2°F9.6°C 48.1°F8.9°C 96% 3.0 mph W4.8 kmh W 11.0 mph17.7 kmh 29.62 in1003.0 mb 0.00 in0.0 mm 0.00 in0.0 mm 0.00 in0.0 mm
05:00 AM 49.2°F9.6°C 48.1°F8.9°C 96% 5.0 mph W8.0 kmh W 10.0 mph16.1 kmh 29.62 in1003.0 mb 0.00 in0.0 mm 0.00 in0.0 mm 0.00 in0.0 mm
04:55 AM 49.2°F9.6°C 48.1°F8.9°C 96% 8.0 mph WNW12.9 kmh WNW 9.0 mph14.5 kmh 29.62 in1003.0 mb 0.00 in0.0 mm 0.00 in0.0 mm 0.00 in0.0 mm
04:50 AM 49.2°F9.6°C 48.1°F8.9°C 96% 4.0 mph SW6.4 kmh SW 10.0 mph16.1 kmh 29.62 in1003.0 mb 0.00 in0.0 mm 0.00 in0.0 mm 0.00 in0.0 mm
04:45 AM 49.2°F9.6°C 47.8°F8.8°C 95% 2.0 mph W3.2 kmh W 11.0 mph17.7 kmh 29.63 in1003.4 mb 0.00 in0.0 mm 0.00 in0.0 mm 0.00 in0.0 mm
04:40 AM 49.2°F9.6°C 48.1°F8.9°C 96% 7.0 mph NW11.3 kmh NW 12.0 mph19.3 kmh 29.63 in1003.4 mb 0.00 in0.0 mm 0.00 in0.0 mm 0.00 in0.0 mm
04:35 AM 49.2°F9.6°C 47.8°F8.8°C 95% 8.0 mph WNW12.9 kmh WNW 12.0 mph19.3 kmh 29.63 in1003.4 mb 0.00 in0.0 mm 0.00 in0.0 mm 0.00 in0.0 mm
04:30 AM 49.2°F9.6°C 47.8°F8.8°C 95% 11.0 mph W17.7 kmh W 11.0 mph17.7 kmh 29.63 in1003.4 mb 0.00 in0.0 mm 0.00 in0.0 mm 0.00 in0.0 mm
04:25 AM 49.2°F9.6°C 47.8°F8.8°C 95% 4.0 mph W6.4 kmh W 13.0 mph20.9 kmh 29.63 in1003.4 mb 0.00 in0.0 mm 0.00 in0.0 mm 0.00 in0.0 mm
04:20 AM 49.2°F9.6°C 47.8°F8.8°C 95% 7.0 mph W11.3 kmh W 12.0 mph19.3 kmh 29.64 in1003.7 mb 0.00 in0.0 mm 0.00 in0.0 mm 0.00 in0.0 mm
04:15 AM 49.2°F9.6°C 47.8°F8.8°C 95% 3.0 mph W4.8 kmh W 10.0 mph16.1 kmh 29.64 in1003.7 mb 0.00 in0.0 mm 0.00 in0.0 mm 0.00 in0.0 mm
04:10 AM 49.2°F9.6°C 47.8°F8.8°C 95% 8.0 mph W12.9 kmh W 13.0 mph20.9 kmh 29.64 in1003.7 mb 0.00 in0.0 mm 0.00 in0.0 mm 0.00 in0.0 mm
04:05 AM 49.3°F9.6°C 48.2°F9.0°C 96% 6.0 mph WNW9.7 kmh WNW 9.0 mph14.5 kmh 29.64 in1003.7 mb 0.00 in0.0 mm 0.00 in0.0 mm 0.00 in0.0 mm
04:00 AM 49.2°F9.6°C 48.1°F8.9°C 96% 4.0 mph W6.4 kmh W 12.0 mph19.3 kmh 29.64 in1003.7 mb 0.00 in0.0 mm 0.00 in0.0 mm 0.00 in0.0 mm
03:55 AM 49.2°F9.6°C 48.1°F8.9°C 96% 4.0 mph NW6.4 kmh NW 12.0 mph19.3 kmh 29.64 in1003.7 mb 0.00 in0.0 mm 0.00 in0.0 mm 0.00 in0.0 mm
03:50 AM 49.3°F9.6°C 48.2°F9.0°C 96% 7.0 mph WNW11.3 kmh WNW 12.0 mph19.3 kmh 29.64 in1003.7 mb 0.00 in0.0 mm 0.00 in0.0 mm 0.00 in0.0 mm
03:45 AM 49.3°F9.6°C 48.2°F9.0°C 96% 3.0 mph W4.8 kmh W 10.0 mph16.1 kmh 29.64 in1003.7 mb 0.00 in0.0 mm 0.00 in0.0 mm 0.00 in0.0 mm
03:40 AM 49.3°F9.6°C 47.9°F8.8°C 95% 4.0 mph W6.4 kmh W 11.0 mph17.7 kmh 29.65 in1004.1 mb 0.00 in0.0 mm 0.00 in0.0 mm 0.00 in0.0 mm
03:35 AM 49.4°F9.7°C 48.0°F8.9°C 95% 2.0 mph W3.2 kmh W 9.0 mph14.5 kmh 29.65 in1004.1 mb 0.00 in0.0 mm 0.00 in0.0 mm 0.00 in0.0 mm
03:30 AM 49.3°F9.6°C 47.9°F8.8°C 95% 7.0 mph W11.3 kmh W 11.0 mph17.7 kmh 29.65 in1004.1 mb 0.00 in0.0 mm 0.00 in0.0 mm 0.00 in0.0 mm
03:25 AM 49.3°F9.6°C 47.9°F8.8°C 95% 9.0 mph WNW14.5 kmh WNW 11.0 mph17.7 kmh 29.65 in1004.1 mb 0.00 in0.0 mm 0.00 in0.0 mm 0.00 in0.0 mm
03:20 AM 49.4°F9.7°C 48.0°F8.9°C 95% 10.0 mph WNW16.1 kmh WNW 8.0 mph12.9 kmh 29.65 in1004.1 mb 0.00 in0.0 mm 0.00 in0.0 mm 0.00 in0.0 mm
03:15 AM 49.3°F9.6°C 48.2°F9.0°C 96% 4.0 mph WNW6.4 kmh WNW 11.0 mph17.7 kmh 29.65 in1004.1 mb 0.00 in0.0 mm 0.00 in0.0 mm 0.00 in0.0 mm
03:10 AM 49.3°F9.6°C 47.9°F8.8°C 95% 5.0 mph NW8.0 kmh NW 10.0 mph16.1 kmh 29.66 in1004.4 mb 0.00 in0.0 mm 0.00 in0.0 mm 0.00 in0.0 mm
03:05 AM 49.3°F9.6°C 48.2°F9.0°C 96% 3.0 mph NW4.8 kmh NW 6.0 mph9.7 kmh 29.66 in1004.4 mb 0.00 in0.0 mm 0.00 in0.0 mm 0.00 in0.0 mm
03:00 AM 49.3°F9.6°C 48.2°F9.0°C 96% 5.0 mph W8.0 kmh W 10.0 mph16.1 kmh 29.66 in1004.4 mb 0.00 in0.0 mm 0.00 in0.0 mm 0.00 in0.0 mm
02:55 AM 49.4°F9.7°C 48.3°F9.1°C 96% 4.0 mph WSW6.4 kmh WSW 10.0 mph16.1 kmh 29.67 in1004.7 mb 0.00 in0.0 mm 0.00 in0.0 mm 0.00 in0.0 mm
02:50 AM 49.3°F9.6°C 48.2°F9.0°C 96% 5.0 mph WNW8.0 kmh WNW 8.0 mph12.9 kmh 29.68 in1005.1 mb 0.00 in0.0 mm 0.00 in0.0 mm 0.00 in0.0 mm
02:45 AM 49.4°F9.7°C 48.3°F9.1°C 96% 1.0 mph WNW1.6 kmh WNW 8.0 mph12.9 kmh 29.68 in1005.1 mb 0.00 in0.0 mm 0.00 in0.0 mm 0.00 in0.0 mm
02:40 AM 49.4°F9.7°C 48.3°F9.1°C 96% 4.0 mph W6.4 kmh W 8.0 mph12.9 kmh 29.69 in1005.4 mb 0.00 in0.0 mm 0.00 in0.0 mm 0.00 in0.0 mm
02:35 AM 49.4°F9.7°C 48.3°F9.1°C 96% 4.0 mph W6.4 kmh W 8.0 mph12.9 kmh 29.69 in1005.4 mb 0.00 in0.0 mm 0.00 in0.0 mm 0.00 in0.0 mm
02:30 AM 49.4°F9.7°C 48.3°F9.1°C 96% 3.0 mph WNW4.8 kmh WNW 8.0 mph12.9 kmh 29.69 in1005.4 mb 0.00 in0.0 mm 0.00 in0.0 mm 0.00 in0.0 mm
02:25 AM 49.5°F9.7°C 48.4°F9.1°C 96% 2.0 mph W3.2 kmh W 9.0 mph14.5 kmh 29.69 in1005.4 mb 0.00 in0.0 mm 0.00 in0.0 mm 0.00 in0.0 mm
02:20 AM 49.5°F9.7°C 48.4°F9.1°C 96% 5.0 mph WSW8.0 kmh WSW 8.0 mph12.9 kmh 29.70 in1005.8 mb 0.00 in0.0 mm 0.00 in0.0 mm 0.00 in0.0 mm
02:15 AM 49.5°F9.7°C 48.4°F9.1°C 96% 4.0 mph WNW6.4 kmh WNW 7.0 mph11.3 kmh 29.71 in1006.1 mb 0.00 in0.0 mm 0.00 in0.0 mm 0.00 in0.0 mm
02:10 AM 49.5°F9.7°C 48.1°F8.9°C 95% 3.0 mph W4.8 kmh W 8.0 mph12.9 kmh 29.70 in1005.8 mb 0.00 in0.0 mm 0.00 in0.0 mm 0.00 in0.0 mm
02:05 AM 49.4°F9.7°C 48.0°F8.9°C 95% 2.0 mph WNW3.2 kmh WNW 9.0 mph14.5 kmh 29.70 in1005.8 mb 0.00 in0.0 mm 0.00 in0.0 mm 0.00 in0.0 mm
02:00 AM 49.5°F9.7°C 48.1°F8.9°C 95% 4.0 mph WSW6.4 kmh WSW 6.0 mph9.7 kmh 29.71 in1006.1 mb 0.00 in0.0 mm 0.00 in0.0 mm 0.00 in0.0 mm
01:55 AM 49.4°F9.7°C 48.0°F8.9°C 95% 5.0 mph WNW8.0 kmh WNW 9.0 mph14.5 kmh 29.71 in1006.1 mb 0.00 in0.0 mm 0.00 in0.0 mm 0.00 in0.0 mm
01:50 AM 49.4°F9.7°C 48.0°F8.9°C 95% 4.0 mph WNW6.4 kmh WNW 6.0 mph9.7 kmh 29.71 in1006.1 mb 0.00 in0.0 mm 0.00 in0.0 mm 0.00 in0.0 mm
01:45 AM 49.4°F9.7°C 48.0°F8.9°C 95% 6.0 mph NW9.7 kmh NW 8.0 mph12.9 kmh 29.71 in1006.1 mb 0.00 in0.0 mm 0.00 in0.0 mm 0.00 in0.0 mm
01:40 AM 49.4°F9.7°C 48.0°F8.9°C 95% 4.0 mph NW6.4 kmh NW 9.0 mph14.5 kmh 29.71 in1006.1 mb 0.00 in0.0 mm 0.00 in0.0 mm 0.00 in0.0 mm
01:35 AM 49.4°F9.7°C 48.0°F8.9°C 95% 3.0 mph WNW4.8 kmh WNW 7.0 mph11.3 kmh 29.71 in1006.1 mb 0.00 in0.0 mm 0.00 in0.0 mm 0.00 in0.0 mm
01:30 AM 49.4°F9.7°C 48.0°F8.9°C 95% 1.0 mph W1.6 kmh W 9.0 mph14.5 kmh 29.71 in1006.1 mb 0.00 in0.0 mm 0.00 in0.0 mm 0.00 in0.0 mm
01:25 AM 49.5°F9.7°C 48.1°F8.9°C 95% 6.0 mph WNW9.7 kmh WNW 8.0 mph12.9 kmh 29.71 in1006.1 mb 0.00 in0.0 mm 0.00 in0.0 mm 0.00 in0.0 mm
01:20 AM 49.5°F9.7°C 48.1°F8.9°C 95% Calm Calm 8.0 mph12.9 kmh 29.71 in1006.1 mb 0.00 in0.0 mm 0.00 in0.0 mm 0.00 in0.0 mm
01:15 AM 49.5°F9.7°C 48.1°F8.9°C 95% Calm Calm 2.0 mph3.2 kmh 29.71 in1006.1 mb 0.00 in0.0 mm 0.00 in0.0 mm 0.00 in0.0 mm
01:10 AM 49.4°F9.7°C 48.0°F8.9°C 95% Calm Calm 5.0 mph8.0 kmh 29.72 in1006.4 mb 0.00 in0.0 mm 0.00 in0.0 mm 0.00 in0.0 mm
01:05 AM 49.4°F9.7°C 48.0°F8.9°C 95% Calm Calm 7.0 mph11.3 kmh 29.72 in1006.4 mb 0.00 in0.0 mm 0.00 in0.0 mm 0.00 in0.0 mm
01:00 AM 49.4°F9.7°C 48.0°F8.9°C 95% 3.0 mph NW4.8 kmh NW 8.0 mph12.9 kmh 29.72 in1006.4 mb 0.00 in0.0 mm 0.00 in0.0 mm 0.00 in0.0 mm
12:55 AM 49.4°F9.7°C 48.0°F8.9°C 95% 6.0 mph W9.7 kmh W 7.0 mph11.3 kmh 29.72 in1006.4 mb 0.00 in0.0 mm 0.00 in0.0 mm 0.00 in0.0 mm
12:50 AM 49.4°F9.7°C 48.0°F8.9°C 95% 4.0 mph WNW6.4 kmh WNW 8.0 mph12.9 kmh 29.73 in1006.8 mb 0.00 in0.0 mm 0.00 in0.0 mm 0.00 in0.0 mm
12:45 AM 49.4°F9.7°C 48.0°F8.9°C 95% 6.0 mph W9.7 kmh W 8.0 mph12.9 kmh 29.73 in1006.8 mb 0.00 in0.0 mm 0.00 in0.0 mm 0.00 in0.0 mm
12:40 AM 49.4°F9.7°C 48.0°F8.9°C 95% 3.0 mph W4.8 kmh W 8.0 mph12.9 kmh 29.73 in1006.8 mb 0.00 in0.0 mm 0.00 in0.0 mm 0.00 in0.0 mm
12:35 AM 49.5°F9.7°C 48.1°F8.9°C 95% 2.0 mph NW3.2 kmh NW 8.0 mph12.9 kmh 29.73 in1006.8 mb 0.00 in0.0 mm 0.00 in0.0 mm 0.00 in0.0 mm
12:30 AM 49.4°F9.7°C 48.0°F8.9°C 95% 5.0 mph WNW8.0 kmh WNW 7.0 mph11.3 kmh 29.73 in1006.8 mb 0.00 in0.0 mm 0.00 in0.0 mm 0.00 in0.0 mm
12:25 AM 49.5°F9.7°C 48.1°F8.9°C 95% 4.0 mph W6.4 kmh W 7.0 mph11.3 kmh 29.73 in1006.8 mb 0.00 in0.0 mm 0.00 in0.0 mm 0.00 in0.0 mm
12:20 AM 49.5°F9.7°C 48.1°F8.9°C 95% 5.0 mph WNW8.0 kmh WNW 7.0 mph11.3 kmh 29.74 in1007.1 mb 0.00 in0.0 mm 0.00 in0.0 mm 0.00 in0.0 mm
12:15 AM 49.5°F9.7°C 48.1°F8.9°C 95% Calm Calm 5.0 mph8.0 kmh 29.74 in1007.1 mb 0.00 in0.0 mm 0.00 in0.0 mm 0.00 in0.0 mm
12:10 AM 49.5°F9.7°C 48.1°F8.9°C 95% 2.0 mph WSW3.2 kmh WSW 6.0 mph9.7 kmh 29.74 in1007.1 mb 0.00 in0.0 mm 0.00 in0.0 mm 0.00 in0.0 mm
12:05 AM 49.5°F9.7°C 48.1°F8.9°C 95% Calm Calm 6.0 mph9.7 kmh 29.74 in1007.1 mb 0.00 in0.0 mm 0.00 in0.0 mm 0.00 in0.0 mm
12:00 AM 49.5°F9.7°C 48.1°F8.9°C 95% 4.0 mph W6.4 kmh W 8.0 mph12.9 kmh 29.74 in1007.1 mb 0.00 in0.0 mm 0.00 in0.0 mm 0.06 in1.5 mm